createdAt,value
2018-06-30T00:02:00.038Z,55.10
2018-06-30T00:04:28.370Z,54.70
2018-06-30T00:06:56.774Z,54.80
2018-06-30T00:09:25.090Z,54.70
2018-06-30T00:11:53.348Z,54.70
2018-06-30T00:14:21.713Z,54.40
2018-06-30T00:16:50.087Z,54.20
2018-06-30T00:19:18.752Z,54.40
2018-06-30T00:21:47.054Z,54.40
2018-06-30T00:24:15.340Z,54.40
2018-06-30T00:26:43.682Z,54.70
2018-06-30T00:29:12.065Z,55.00
2018-06-30T00:31:40.408Z,54.80
2018-06-30T00:34:09.087Z,54.80
2018-06-30T00:39:09.068Z,55.10
2018-06-30T00:41:37.294Z,55.20
2018-06-30T00:44:05.594Z,55.40
2018-06-30T00:46:34.075Z,55.30
2018-06-30T00:49:02.592Z,55.20
2018-06-30T00:51:30.916Z,55.30
2018-06-30T00:53:59.227Z,55.50
2018-06-30T00:56:27.571Z,55.50
2018-06-30T00:58:56.022Z,55.20
2018-06-30T01:01:24.255Z,55.20
2018-06-30T01:03:52.527Z,55.30
2018-06-30T01:06:20.800Z,55.30
2018-06-30T01:08:49.110Z,55.50
2018-06-30T01:11:17.329Z,56.10
2018-06-30T01:13:45.627Z,55.90
2018-06-30T01:16:13.907Z,55.70
2018-06-30T01:18:42.385Z,56.10
2018-06-30T01:21:10.746Z,56.00
2018-06-30T01:23:39.075Z,56.00
2018-06-30T01:26:07.503Z,55.60
2018-06-30T01:28:35.782Z,55.90
2018-06-30T01:31:04.096Z,56.00
2018-06-30T01:33:32.440Z,56.00
2018-06-30T01:36:02.023Z,56.30
2018-06-30T01:38:30.315Z,56.40
2018-06-30T01:40:58.582Z,56.50
2018-06-30T01:43:26.840Z,56.50
2018-06-30T01:45:55.369Z,56.30
2018-06-30T01:48:23.706Z,56.40
2018-06-30T01:50:51.953Z,56.60
2018-06-30T01:53:20.230Z,56.70
2018-06-30T01:55:48.475Z,56.80
2018-06-30T01:58:17.450Z,56.70
2018-06-30T02:00:45.748Z,56.90
2018-06-30T02:03:13.981Z,56.90
2018-06-30T02:05:42.291Z,57.00
2018-06-30T02:08:10.558Z,57.60
2018-06-30T02:10:38.804Z,57.70
2018-06-30T02:13:07.081Z,57.90
2018-06-30T02:15:35.357Z,58.90
2018-06-30T02:18:03.701Z,59.40
2018-06-30T02:20:31.982Z,59.80
2018-06-30T02:23:00.681Z,59.90
2018-06-30T02:25:28.949Z,59.90
2018-06-30T02:27:57.215Z,59.70
2018-06-30T02:30:25.565Z,60.30
2018-06-30T02:32:53.786Z,60.60
2018-06-30T02:35:22.131Z,60.50
2018-06-30T02:37:50.450Z,61.60
2018-06-30T02:40:18.708Z,61.50
2018-06-30T02:42:46.969Z,61.90
2018-06-30T02:47:43.300Z,60.40
2018-06-30T02:50:11.691Z,60.00
2018-06-30T02:52:39.984Z,59.90
2018-06-30T02:55:08.296Z,60.20
2018-06-30T02:57:36.812Z,60.20
2018-06-30T03:00:05.512Z,60.50
2018-06-30T03:02:33.795Z,60.80
2018-06-30T03:05:02.094Z,60.40
2018-06-30T03:09:58.356Z,60.90
2018-06-30T03:12:27.038Z,60.90
2018-06-30T03:14:55.542Z,60.80
2018-06-30T03:17:23.814Z,60.90
2018-06-30T03:19:52.124Z,60.80
2018-06-30T03:22:20.371Z,61.10
2018-06-30T03:24:48.740Z,60.90
2018-06-30T03:27:16.982Z,61.00
2018-06-30T03:29:45.235Z,61.10
2018-06-30T03:32:13.545Z,61.40
2018-06-30T03:34:41.806Z,61.60
2018-06-30T03:37:10.152Z,61.30
2018-06-30T03:39:39.070Z,61.40
2018-06-30T03:42:07.359Z,61.30
2018-06-30T03:44:35.630Z,61.20
2018-06-30T03:47:04.090Z,61.30
2018-06-30T03:49:32.423Z,61.60
2018-06-30T03:52:01.615Z,61.80
2018-06-30T03:54:30.540Z,61.70
2018-06-30T03:56:58.900Z,61.60
2018-06-30T03:59:27.218Z,61.70
2018-06-30T04:01:55.550Z,61.70
2018-06-30T04:04:23.884Z,62.00
2018-06-30T04:06:52.163Z,61.80
2018-06-30T04:09:20.431Z,62.00
2018-06-30T04:11:48.701Z,61.90
2018-06-30T04:14:17.059Z,62.20
2018-06-30T04:16:45.379Z,62.30
2018-06-30T04:19:16.800Z,62.40
2018-06-30T04:21:46.225Z,62.50
2018-06-30T04:24:14.542Z,62.60
2018-06-30T04:26:43.628Z,62.40
2018-06-30T04:29:12.678Z,62.50
2018-06-30T04:31:41.012Z,62.70
2018-06-30T04:34:09.467Z,62.70
2018-06-30T04:36:37.755Z,62.50
2018-06-30T04:39:08.114Z,62.80
2018-06-30T04:41:36.393Z,62.80
2018-06-30T04:44:05.427Z,62.40
2018-06-30T04:46:33.668Z,62.50
2018-06-30T04:49:01.886Z,62.90
2018-06-30T04:51:30.228Z,63.10
2018-06-30T04:53:58.588Z,63.30
2018-06-30T04:56:27.819Z,63.20
2018-06-30T04:58:56.148Z,63.10
2018-06-30T05:01:24.400Z,63.20
2018-06-30T05:03:52.860Z,62.90
2018-06-30T05:06:21.167Z,63.10
2018-06-30T05:08:49.544Z,63.40
2018-06-30T05:11:17.901Z,63.30
2018-06-30T05:13:46.192Z,63.60
2018-06-30T05:16:14.598Z,63.30
2018-06-30T05:18:42.930Z,62.90
2018-06-30T05:21:11.140Z,62.80
2018-06-30T05:23:39.380Z,62.80
2018-06-30T05:26:07.698Z,62.80
2018-06-30T05:28:36.008Z,62.80
2018-06-30T05:31:04.262Z,62.60
2018-06-30T05:33:32.605Z,62.80
2018-06-30T05:36:00.868Z,62.70
2018-06-30T05:38:29.727Z,62.50
2018-06-30T05:40:58.160Z,62.40
2018-06-30T05:43:26.441Z,62.40
2018-06-30T05:45:54.685Z,60.90
2018-06-30T05:50:50.942Z,59.30
2018-06-30T05:53:19.311Z,58.50
2018-06-30T05:55:47.535Z,57.80
2018-06-30T05:58:15.858Z,57.30
2018-06-30T06:00:44.452Z,57.30
2018-06-30T06:05:40.812Z,57.10
2018-06-30T06:08:09.085Z,58.10
2018-06-30T06:10:37.412Z,56.50
2018-06-30T06:13:05.749Z,56.00
2018-06-30T06:15:34.767Z,55.80
2018-06-30T06:18:03.124Z,55.70
2018-06-30T06:20:31.390Z,55.50
2018-06-30T06:22:59.612Z,55.10
2018-06-30T06:25:27.903Z,55.00
2018-06-30T06:27:56.211Z,54.80
2018-06-30T06:30:24.530Z,54.80
2018-06-30T06:32:52.868Z,54.80
2018-06-30T06:35:21.099Z,54.00
2018-06-30T06:37:49.457Z,53.70
2018-06-30T06:40:17.707Z,53.80
2018-06-30T06:42:46.044Z,53.70
2018-06-30T06:45:14.349Z,53.40
2018-06-30T06:47:42.639Z,53.80
2018-06-30T06:50:10.628Z,54.20
2018-06-30T06:52:39.108Z,53.30
2018-06-30T06:55:07.509Z,53.70
2018-06-30T06:57:36.998Z,53.20
2018-06-30T07:00:06.005Z,53.20
2018-06-30T07:02:34.272Z,53.20
2018-06-30T07:05:02.554Z,53.20
2018-06-30T07:07:30.843Z,52.90
2018-06-30T07:09:59.095Z,53.30
2018-06-30T07:12:27.389Z,53.10
2018-06-30T07:14:55.741Z,53.00
2018-06-30T07:17:24.000Z,53.00
2018-06-30T07:19:52.392Z,53.00
2018-06-30T07:22:20.645Z,52.70
2018-06-30T07:24:49.406Z,52.50
2018-06-30T07:27:17.694Z,52.50
2018-06-30T07:29:46.176Z,52.70
2018-06-30T07:32:14.554Z,52.20
2018-06-30T07:34:43.852Z,51.90
2018-06-30T07:39:40.179Z,51.80
2018-06-30T07:42:08.407Z,51.50
2018-06-30T07:44:36.810Z,51.30
2018-06-30T07:47:05.271Z,51.30
2018-06-30T07:49:33.552Z,51.50
2018-06-30T07:52:01.971Z,51.80
2018-06-30T07:54:30.249Z,51.40
2018-06-30T07:56:58.780Z,51.00
2018-06-30T07:59:27.181Z,51.40
2018-06-30T08:01:55.417Z,51.10
2018-06-30T08:04:23.953Z,50.70
2018-06-30T08:06:52.209Z,50.50
2018-06-30T08:09:20.495Z,50.40
2018-06-30T08:11:49.866Z,50.60
2018-06-30T08:14:18.167Z,50.20
2018-06-30T08:16:46.479Z,50.20
2018-06-30T08:19:14.749Z,50.20
2018-06-30T08:21:43.074Z,50.30
2018-06-30T08:24:11.383Z,50.20
2018-06-30T08:26:39.621Z,49.70
2018-06-30T08:29:07.893Z,50.00
2018-06-30T08:31:36.268Z,49.90
2018-06-30T08:34:04.593Z,50.10
2018-06-30T08:36:32.861Z,49.90
2018-06-30T08:39:01.245Z,49.60
2018-06-30T08:41:29.558Z,49.30
2018-06-30T08:43:57.783Z,49.30
2018-06-30T08:46:26.103Z,48.80
2018-06-30T08:48:54.394Z,49.40
2018-06-30T08:51:22.677Z,48.60
2018-06-30T08:53:53.401Z,48.00
2018-06-30T08:56:21.742Z,48.30
2018-06-30T08:58:50.096Z,48.50
2018-06-30T09:01:18.350Z,48.20
2018-06-30T09:03:46.702Z,48.50
2018-06-30T09:06:15.052Z,47.80
2018-06-30T09:08:43.405Z,47.10
2018-06-30T09:11:11.759Z,47.00
2018-06-30T09:13:40.100Z,46.70
2018-06-30T09:18:36.385Z,47.10
2018-06-30T09:21:04.982Z,46.90
2018-06-30T09:23:33.461Z,46.90
2018-06-30T09:26:01.756Z,46.30
2018-06-30T09:28:30.081Z,45.50
2018-06-30T09:30:59.298Z,45.50
2018-06-30T09:33:27.622Z,44.50
2018-06-30T09:35:56.008Z,44.00
2018-06-30T09:38:24.298Z,43.60
2018-06-30T09:40:52.593Z,43.10
2018-06-30T09:43:20.856Z,42.30
2018-06-30T09:45:49.125Z,41.90
2018-06-30T09:48:17.490Z,41.50
2018-06-30T09:50:45.768Z,41.40
2018-06-30T09:53:13.985Z,40.50
2018-06-30T09:55:42.280Z,40.00
2018-06-30T09:58:10.574Z,38.90
2018-06-30T10:00:44.382Z,37.70
2018-06-30T10:03:12.692Z,37.50
2018-06-30T10:05:40.925Z,36.90
2018-06-30T10:08:09.859Z,36.80
2018-06-30T10:10:38.168Z,36.80
2018-06-30T10:13:06.567Z,36.90
2018-06-30T10:15:35.426Z,36.90
2018-06-30T10:18:03.714Z,37.50
2018-06-30T10:20:32.034Z,38.40
2018-06-30T10:23:00.464Z,38.70
2018-06-30T10:25:28.928Z,39.60
2018-06-30T10:27:57.304Z,39.90
2018-06-30T10:30:25.864Z,40.20
2018-06-30T10:32:54.365Z,40.70
2018-06-30T10:35:22.770Z,42.00
2018-06-30T10:37:51.249Z,42.40
2018-06-30T10:40:19.519Z,42.50
2018-06-30T10:42:47.860Z,42.90
2018-06-30T10:45:16.362Z,42.40
2018-06-30T10:47:44.653Z,42.70
2018-06-30T10:50:13.659Z,42.30
2018-06-30T10:52:42.136Z,42.60
2018-06-30T10:55:10.470Z,42.70
2018-06-30T10:57:39.115Z,42.50
2018-06-30T11:00:07.956Z,43.30
2018-06-30T11:02:36.601Z,43.00
2018-06-30T11:05:05.434Z,44.00
2018-06-30T11:07:33.711Z,43.90
2018-06-30T11:12:30.087Z,43.80
2018-06-30T11:14:58.493Z,43.90
2018-06-30T11:17:26.805Z,44.50
2018-06-30T11:19:55.082Z,44.90
2018-06-30T11:22:23.408Z,43.70
2018-06-30T11:24:51.780Z,43.50
2018-06-30T11:27:20.093Z,43.90
2018-06-30T11:29:48.426Z,43.90
2018-06-30T11:32:16.730Z,43.80
2018-06-30T11:34:45.284Z,43.60
2018-06-30T11:37:13.585Z,43.40
2018-06-30T11:39:42.075Z,43.40
2018-06-30T11:42:10.397Z,42.90
2018-06-30T11:44:38.806Z,42.80
2018-06-30T11:47:07.364Z,43.40
2018-06-30T11:49:35.682Z,43.70
2018-06-30T11:52:04.104Z,43.80
2018-06-30T11:54:32.441Z,43.40
2018-06-30T11:57:00.712Z,43.60
2018-06-30T11:59:29.026Z,43.90
2018-06-30T12:01:57.307Z,43.80
2018-06-30T12:04:25.781Z,44.20
2018-06-30T12:06:54.348Z,44.20
2018-06-30T12:09:22.735Z,44.10
2018-06-30T12:11:51.098Z,43.70
2018-06-30T12:14:19.501Z,43.70
2018-06-30T12:16:47.948Z,42.90
2018-06-30T12:19:16.353Z,43.00
2018-06-30T12:21:44.690Z,43.20
2018-06-30T12:24:13.054Z,42.90
2018-06-30T12:26:41.328Z,43.20
2018-06-30T12:29:09.843Z,43.00
2018-06-30T12:31:38.136Z,43.00
2018-06-30T12:34:06.747Z,42.60
2018-06-30T12:36:35.067Z,42.40
2018-06-30T12:39:03.539Z,42.90
2018-06-30T12:41:32.048Z,42.10
2018-06-30T12:44:00.429Z,42.30
2018-06-30T12:46:29.165Z,41.60
2018-06-30T12:48:57.521Z,41.80
2018-06-30T12:51:25.813Z,41.80
2018-06-30T12:53:54.198Z,41.70
2018-06-30T12:56:22.595Z,41.50
2018-06-30T12:58:50.864Z,41.40
2018-06-30T13:01:19.160Z,41.10
2018-06-30T13:03:47.525Z,41.10
2018-06-30T13:08:43.941Z,41.10
2018-06-30T13:11:12.364Z,40.80
2018-06-30T13:13:40.747Z,40.40
2018-06-30T13:16:09.647Z,40.60
2018-06-30T13:18:38.922Z,40.20
2018-06-30T13:21:07.442Z,39.60
2018-06-30T13:23:35.765Z,39.70
2018-06-30T13:26:04.345Z,40.00
2018-06-30T13:28:33.019Z,40.40
2018-06-30T13:31:01.387Z,40.00
2018-06-30T13:33:30.491Z,40.10
2018-06-30T13:35:58.849Z,39.40
2018-06-30T13:38:27.834Z,38.90
2018-06-30T13:40:56.202Z,39.40
2018-06-30T13:43:24.583Z,39.10
2018-06-30T13:45:52.845Z,39.10
2018-06-30T13:48:21.254Z,38.90
2018-06-30T13:50:49.547Z,39.40
2018-06-30T13:53:17.867Z,39.20
2018-06-30T13:55:46.221Z,38.80
2018-06-30T13:58:14.512Z,38.60
2018-06-30T14:00:42.805Z,38.30
2018-06-30T14:03:11.149Z,38.00
2018-06-30T14:05:40.148Z,38.50
2018-06-30T14:08:08.606Z,38.10
2018-06-30T14:10:36.962Z,37.90
2018-06-30T14:13:05.298Z,37.70
2018-06-30T14:15:33.640Z,38.20
2018-06-30T14:18:02.013Z,37.70
2018-06-30T14:20:30.382Z,37.50
2018-06-30T14:22:58.701Z,37.70
2018-06-30T14:25:27.075Z,37.80
2018-06-30T14:27:55.373Z,37.30
2018-06-30T14:30:23.644Z,37.30
2018-06-30T14:32:52.057Z,37.30
2018-06-30T14:35:20.346Z,37.20
2018-06-30T14:37:48.678Z,37.50
2018-06-30T14:40:16.933Z,36.90
2018-06-30T14:42:45.264Z,36.90
2018-06-30T14:45:13.539Z,37.00
2018-06-30T14:47:41.858Z,37.10
2018-06-30T14:50:10.352Z,36.50
2018-06-30T14:52:38.856Z,36.80
2018-06-30T14:55:07.308Z,37.10
2018-06-30T14:57:35.704Z,36.40
2018-06-30T15:00:04.833Z,35.90
2018-06-30T15:02:33.074Z,36.10
2018-06-30T15:05:01.392Z,36.20
2018-06-30T15:07:29.765Z,36.10
2018-06-30T15:09:57.963Z,37.20
2018-06-30T15:12:26.915Z,36.70
2018-06-30T15:14:55.201Z,36.70
2018-06-30T15:17:23.556Z,36.70
2018-06-30T15:19:51.762Z,36.20
2018-06-30T15:22:20.216Z,36.10
2018-06-30T15:24:48.484Z,36.10
2018-06-30T15:27:17.916Z,36.10
2018-06-30T15:29:46.201Z,35.90
2018-06-30T15:32:15.003Z,35.90
2018-06-30T15:34:43.430Z,36.00
2018-06-30T15:37:11.916Z,36.60
2018-06-30T15:39:40.384Z,35.50
2018-06-30T15:42:08.704Z,35.60
2018-06-30T15:44:37.060Z,36.50
2018-06-30T15:47:05.483Z,36.40
2018-06-30T15:49:33.835Z,35.60
2018-06-30T15:52:02.326Z,35.70
2018-06-30T15:54:30.895Z,35.80
2018-06-30T15:56:59.358Z,36.50
2018-06-30T15:59:27.661Z,36.10
2018-06-30T16:01:56.024Z,35.90
2018-06-30T16:04:24.410Z,35.60
2018-06-30T16:06:52.762Z,35.10
2018-06-30T16:09:21.050Z,35.20
2018-06-30T16:11:49.427Z,35.20
2018-06-30T16:14:17.734Z,35.70
2018-06-30T16:16:46.216Z,35.90
2018-06-30T16:19:14.580Z,35.30
2018-06-30T16:21:42.886Z,35.40
2018-06-30T16:24:11.287Z,34.80
2018-06-30T16:26:39.619Z,34.80
2018-06-30T16:29:07.950Z,34.80
2018-06-30T16:31:36.277Z,35.10
2018-06-30T16:34:04.652Z,34.30
2018-06-30T16:36:32.998Z,34.30
2018-06-30T16:39:01.369Z,34.80
2018-06-30T16:41:30.354Z,34.40
2018-06-30T16:43:58.717Z,34.10
2018-06-30T16:46:27.055Z,34.50
2018-06-30T16:48:55.471Z,34.30
2018-06-30T16:51:23.747Z,34.90
2018-06-30T16:53:52.090Z,34.00
2018-06-30T16:56:20.426Z,34.10
2018-06-30T16:58:49.625Z,34.00
2018-06-30T17:03:46.044Z,33.40
2018-06-30T17:06:14.431Z,33.00
2018-06-30T17:08:42.883Z,33.20
2018-06-30T17:11:11.205Z,33.60
2018-06-30T17:13:39.566Z,33.70
2018-06-30T17:16:07.961Z,33.80
2018-06-30T17:18:36.570Z,33.40
2018-06-30T17:21:04.951Z,33.60
2018-06-30T17:23:33.200Z,33.60
2018-06-30T17:26:01.549Z,33.30
2018-06-30T17:28:30.187Z,33.40
2018-06-30T17:30:58.439Z,33.70
2018-06-30T17:33:26.881Z,32.90
2018-06-30T17:38:23.240Z,32.70
2018-06-30T17:40:51.839Z,32.20
2018-06-30T17:45:48.151Z,32.20
2018-06-30T17:48:16.508Z,31.60
2018-06-30T17:50:45.251Z,31.50
2018-06-30T17:53:13.891Z,31.90
2018-06-30T17:55:42.131Z,31.80
2018-06-30T17:58:10.408Z,32.20
2018-06-30T18:00:38.679Z,31.70
2018-06-30T18:03:07.023Z,31.40
2018-06-30T18:05:35.315Z,30.80
2018-06-30T18:08:03.646Z,30.70
2018-06-30T18:10:32.349Z,30.70
2018-06-30T18:13:00.600Z,30.60
2018-06-30T18:15:28.888Z,30.70
2018-06-30T18:17:57.172Z,30.40
2018-06-30T18:20:25.421Z,30.30
2018-06-30T18:22:54.247Z,30.20
2018-06-30T18:25:22.499Z,30.40
2018-06-30T18:27:50.807Z,30.50
2018-06-30T18:30:19.086Z,30.60
2018-06-30T18:32:47.480Z,30.60
2018-06-30T18:37:44.278Z,30.00
2018-06-30T18:40:12.615Z,30.10
2018-06-30T18:42:40.881Z,30.00
2018-06-30T18:45:09.140Z,30.00
2018-06-30T18:47:37.431Z,30.10
2018-06-30T18:50:05.824Z,30.10
2018-06-30T18:52:34.197Z,30.30
2018-06-30T18:55:02.460Z,30.00
2018-06-30T18:57:30.741Z,30.00
2018-06-30T18:59:59.091Z,29.60
2018-06-30T19:02:27.391Z,29.80
2018-06-30T19:04:55.707Z,29.80
2018-06-30T19:07:24.419Z,29.60
2018-06-30T19:09:52.859Z,29.90
2018-06-30T19:12:21.021Z,29.70
2018-06-30T19:14:49.287Z,30.00
2018-06-30T19:17:17.649Z,29.80
2018-06-30T19:19:45.962Z,29.80
2018-06-30T19:22:14.223Z,30.10
2018-06-30T19:24:42.480Z,30.30
2018-06-30T19:27:10.752Z,30.40
2018-06-30T19:29:39.068Z,30.00
2018-06-30T19:32:07.380Z,29.90
2018-06-30T19:34:35.617Z,30.30
2018-06-30T19:37:03.973Z,30.50
2018-06-30T19:39:33.101Z,30.20
2018-06-30T19:42:01.405Z,30.40
2018-06-30T19:44:29.657Z,30.20
2018-06-30T19:46:57.968Z,30.40
2018-06-30T19:49:26.278Z,30.40
2018-06-30T19:51:54.554Z,30.50
2018-06-30T19:54:22.916Z,30.60
2018-06-30T19:56:51.320Z,30.60
2018-06-30T19:59:19.571Z,30.50
2018-06-30T20:01:47.850Z,30.80
2018-06-30T20:04:16.141Z,30.90
2018-06-30T20:06:45.998Z,31.00
2018-06-30T20:09:14.231Z,31.30
2018-06-30T20:11:42.574Z,31.20
2018-06-30T20:14:10.875Z,31.00
2018-06-30T20:19:07.216Z,31.10
2018-06-30T20:21:35.854Z,31.20
2018-06-30T20:24:04.159Z,31.10
2018-06-30T20:26:32.449Z,31.20
2018-06-30T20:29:00.717Z,31.50
2018-06-30T20:31:29.028Z,31.40
2018-06-30T20:33:57.446Z,31.20
2018-06-30T20:36:25.668Z,31.30
2018-06-30T20:38:53.962Z,31.30
2018-06-30T20:41:22.247Z,31.50
2018-06-30T20:43:50.591Z,31.60
2018-06-30T20:46:18.981Z,31.50
2018-06-30T20:48:47.270Z,31.50
2018-06-30T20:51:15.484Z,31.70
2018-06-30T20:53:43.816Z,31.90
2018-06-30T20:56:12.180Z,32.00
2018-06-30T20:58:41.035Z,31.90
2018-06-30T21:01:10.316Z,31.90
2018-06-30T21:03:38.586Z,32.30
2018-06-30T21:06:06.869Z,32.10
2018-06-30T21:08:35.176Z,32.20
2018-06-30T21:11:03.484Z,32.20
2018-06-30T21:13:31.792Z,32.40
2018-06-30T21:16:00.115Z,32.50
2018-06-30T21:18:28.679Z,32.60
2018-06-30T21:20:58.252Z,32.60
2018-06-30T21:23:26.547Z,32.80
2018-06-30T21:25:55.102Z,33.00
2018-06-30T21:28:23.373Z,33.00
2018-06-30T21:30:51.673Z,33.00
2018-06-30T21:33:20.111Z,32.80
2018-06-30T21:35:48.356Z,32.90
2018-06-30T21:38:16.648Z,33.10
2018-06-30T21:40:44.874Z,33.40
2018-06-30T21:43:13.112Z,33.30
2018-06-30T21:45:41.407Z,33.40
2018-06-30T21:48:09.995Z,33.50
2018-06-30T21:50:40.045Z,33.60
2018-06-30T21:53:08.460Z,33.70
2018-06-30T21:55:36.723Z,33.70
2018-06-30T21:58:05.908Z,33.70
2018-06-30T22:00:49.408Z,33.70
2018-06-30T22:03:20.552Z,33.80
2018-06-30T22:05:48.861Z,33.90
2018-06-30T22:08:17.164Z,34.00
2018-06-30T22:10:45.542Z,34.10
2018-06-30T22:13:13.778Z,34.00
2018-06-30T22:15:42.093Z,34.40
2018-06-30T22:18:10.412Z,34.20
2018-06-30T22:20:38.740Z,34.30
2018-06-30T22:23:07.009Z,34.50
2018-06-30T22:25:35.312Z,34.60
2018-06-30T22:28:05.087Z,34.60
2018-06-30T22:30:33.374Z,34.40
2018-06-30T22:33:02.191Z,34.70
2018-06-30T22:35:30.426Z,34.60
2018-06-30T22:37:58.711Z,34.60
2018-06-30T22:40:27.051Z,34.60
2018-06-30T22:42:55.381Z,34.70
2018-06-30T22:45:23.742Z,34.80
2018-06-30T22:47:52.061Z,34.50
2018-06-30T22:50:20.332Z,34.70
2018-06-30T22:52:48.647Z,34.80
2018-06-30T22:55:16.948Z,35.10
2018-06-30T22:57:45.311Z,34.90
2018-06-30T23:00:16.866Z,35.00
2018-06-30T23:02:45.124Z,35.20
2018-06-30T23:05:13.449Z,35.40
2018-06-30T23:07:41.736Z,35.50
2018-06-30T23:10:11.349Z,35.70
2018-06-30T23:15:08.042Z,35.70
2018-06-30T23:17:36.368Z,35.80
2018-06-30T23:20:05.299Z,36.70
2018-06-30T23:23:06.164Z,36.00
2018-06-30T23:25:34.940Z,36.10
2018-06-30T23:28:03.440Z,36.40
2018-06-30T23:30:32.220Z,36.10
2018-06-30T23:33:00.516Z,36.00
2018-06-30T23:35:29.939Z,36.10
2018-06-30T23:37:59.208Z,36.30
2018-06-30T23:40:27.535Z,36.20
2018-06-30T23:42:55.839Z,36.20
2018-06-30T23:45:24.423Z,36.30
2018-06-30T23:47:53.613Z,36.40
2018-06-30T23:50:23.273Z,36.50
2018-06-30T23:52:51.764Z,36.50
2018-06-30T23:55:20.082Z,36.60
2018-06-30T23:57:48.363Z,36.70
